Time;durP1;ratioP1;P1;durP2;ratioP2;P2;SDS_P1;SDS_P2;PMS_P1;PMS_P2;Temp;Humidity;BMP_temperature;BMP_pressure;BME280_temperature;BME280_humidity;BME280_pressure;Samples;Min_cycle;Max_cycle;Signal;HPM_P1;HPM_P2
2022/02/02 00:00:34;;;;;;;32.90;4.75;;;;;;;;;;5035923;28;20048;-72
2022/02/02 00:03:07;;;;;;;33.30;4.72;;;;;;;;;;5035121;28;20583;-73
2022/02/02 00:08:21;;;;;;;34.08;5.28;;;;;;;;;;5038604;28;20496;-73
2022/02/02 00:13:33;;;;;;;28.90;4.82;;;;;;;;;;5055488;28;20385;-73
2022/02/02 00:16:33;;;;;;;48.05;7.07;;;;;;;;;;5075853;28;20051;-73
2022/02/02 00:19:16;;;;;;;40.83;5.63;;;;;;;;;;5055325;28;20074;-73
2022/02/02 00:21:47;;;;;;;35.00;5.20;;;;;;;;;;5062395;28;20055;-73
2022/02/02 00:24:25;;;;;;;36.90;5.60;;;;;;;;;;5035067;28;20597;-73
2022/02/02 00:26:55;;;;;;;;;;;;;;;;;;5060577;28;20055;-73
2022/02/02 00:29:26;;;;;;;38.47;4.90;;;;;;;;;;5045573;28;20176;-73
2022/02/02 00:32:02;;;;;;;38.28;5.85;;;;;;;;;;5059832;28;20051;-73
2022/02/02 00:34:30;;;;;;;46.08;6.97;;;;;;;;;;5064144;28;20095;-72
2022/02/02 00:36:57;;;;;;;32.60;5.70;;;;;;;;;;5055748;28;20059;-73
2022/02/02 00:39:25;;;;;;;42.28;5.88;;;;;;;;;;5046420;28;20297;-73
2022/02/02 00:41:54;;;;;;;36.45;5.13;;;;;;;;;;5054844;28;20052;-73
2022/02/02 00:44:20;;;;;;;36.60;5.78;;;;;;;;;;5043674;28;20066;-73
2022/02/02 00:46:47;;;;;;;45.22;6.25;;;;;;;;;;5037292;28;20059;-72
2022/02/02 00:49:14;;;;;;;42.25;6.53;;;;;;;;;;5060718;28;20040;-72
2022/02/02 00:51:49;;;;;;;39.05;7.57;;;;;;;;;;5060066;28;20648;-72
2022/02/02 00:54:17;;;;;;;38.35;6.28;;;;;;;;;;5058438;28;20410;-72
2022/02/02 00:56:43;;;;;;;38.07;7.10;;;;;;;;;;5045474;28;20559;-72
2022/02/02 00:59:10;;;;;;;48.47;7.10;;;;;;;;;;5049487;28;20636;-72
2022/02/02 01:01:37;;;;;;;53.03;8.23;;;;;;;;;;5063063;28;20048;-73
2022/02/02 01:04:04;;;;;;;47.70;7.00;;;;;;;;;;5051684;28;20045;-73
2022/02/02 01:06:34;;;;;;;44.03;6.78;;;;;;;;;;5037317;28;20048;-72
2022/02/02 01:09:20;;;;;;;32.42;6.63;;;;;;;;;;5050081;28;20053;-72
2022/02/02 01:12:41;;;;;;;44.63;5.68;;;;;;;;;;5061393;28;20056;-72
2022/02/02 01:17:24;;;;;;;35.65;6.18;;;;;;;;;;5054254;28;20058;-72
2022/02/02 01:20:01;;;;;;;28.45;4.60;;;;;;;;;;5026552;28;20248;-73
2022/02/02 01:27:57;;;;;;;45.85;6.40;;;;;;;;;;5053472;28;20537;-73
2022/02/02 01:30:24;;;;;;;36.85;5.47;;;;;;;;;;5045215;28;20040;-72
2022/02/02 01:32:51;;;;;;;39.63;5.60;;;;;;;;;;5051668;28;20052;-73
2022/02/02 01:35:18;;;;;;;40.80;5.88;;;;;;;;;;5059151;28;20064;-73
2022/02/02 01:37:46;;;;;;;40.40;6.28;;;;;;;;;;5061942;28;20055;-73
2022/02/02 01:40:33;;;;;;;44.60;6.47;;;;;;;;;;5059281;28;20052;-73
2022/02/02 01:43:05;;;;;;;39.95;6.13;;;;;;;;;;5060657;28;20052;-73
2022/02/02 01:45:39;;;;;;;39.40;5.50;;;;;;;;;;5047957;28;20045;-73
2022/02/02 01:50:55;;;;;;;49.55;6.05;;;;;;;;;;5055820;28;20415;-73
2022/02/02 01:53:32;;;;;;;36.95;6.15;;;;;;;;;;5062129;28;20057;-73
2022/02/02 01:55:59;;;;;;;40.75;5.38;;;;;;;;;;5036132;28;20553;-73
2022/02/02 01:59:00;;;;;;;41.45;6.28;;;;;;;;;;5045181;28;20203;-73
2022/02/02 02:01:29;;;;;;;45.95;6.45;;;;;;;;;;5050367;28;20057;-73
2022/02/02 02:03:56;;;;;;;45.47;6.20;;;;;;;;;;5070974;28;20056;-73
2022/02/02 02:06:23;;;;;;;36.97;6.47;;;;;;;;;;5082441;28;20052;-73
2022/02/02 02:08:50;;;;;;;34.78;5.78;;;;;;;;;;5055589;28;20516;-73
2022/02/02 02:11:19;;;;;;;37.28;5.18;;;;;;;;;;5062176;28;20055;-73
2022/02/02 02:16:31;;;;;;;48.75;6.28;;;;;;;;;;5034672;28;20706;-73
2022/02/02 02:18:58;;;;;;;40.55;5.40;;;;;;;;;;5031072;28;20600;-73
2022/02/02 02:21:25;;;;;;;47.47;5.88;;;;;;;;;;5042335;28;20056;-73
2022/02/02 02:23:51;;;;;;;45.58;5.53;;;;;;;;;;5061669;28;20567;-73
2022/02/02 02:26:24;;;;;;;41.60;5.65;;;;;;;;;;5033837;28;20059;-73
2022/02/02 02:29:19;;;;;;;40.85;5.90;;;;;;;;;;5060533;28;20533;-73
2022/02/02 02:35:13;;;;;;;37.35;7.10;;;;;;;;;;5026514;28;20056;-72
2022/02/02 02:55:49;;;;;;;34.88;5.85;;;;;;;;;;5059687;28;20053;-73
2022/02/02 02:56:30;;;;;;;35.72;5.35;;;;;;;;;;5055512;28;20501;-73
2022/02/02 03:01:48;;;;;;;46.15;6.63;;;;;;;;;;5060677;28;20049;-73
2022/02/02 03:32:25;;;;;;;38.83;6.22;;;;;;;;;;5060737;28;20050;-73
2022/02/02 03:51:23;;;;;;;36.28;5.20;;;;;;;;;;5059449;28;20054;-74
2022/02/02 04:07:05;;;;;;;37.45;6.07;;;;;;;;;;5057121;28;20053;-73
2022/02/02 04:09:35;;;;;;;36.83;5.40;;;;;;;;;;5054317;28;20382;-74
2022/02/02 04:15:32;;;;;;;40.05;5.43;;;;;;;;;;5062072;28;20044;-73
2022/02/02 04:17:48;;;;;;;31.75;4.72;;;;;;;;;;5056980;28;20175;-73
2022/02/02 04:37:34;;;;;;;37.28;4.68;;;;;;;;;;5053828;28;20425;-73
2022/02/02 04:37:35;;;;;;;35.40;4.68;;;;;;;;;;5053192;28;20049;-73
2022/02/02 04:51:35;;;;;;;31.63;4.82;;;;;;;;;;5066153;28;20051;-75
2022/02/02 04:59:31;;;;;;;47.88;6.07;;;;;;;;;;5050189;28;20090;-74
2022/02/02 05:07:18;;;;;;;42.95;6.13;;;;;;;;;;5059120;28;20044;-74
2022/02/02 05:10:06;;;;;;;26.70;4.20;;;;;;;;;;5042321;28;20044;-75
2022/02/02 05:18:16;;;;;;;42.47;5.60;;;;;;;;;;5053701;28;20483;-74
2022/02/02 05:45:24;;;;;;;42.67;5.53;;;;;;;;;;5051551;28;20397;-75
2022/02/02 05:51:03;;;;;;;28.48;4.47;;;;;;;;;;5071435;28;20499;-75
2022/02/02 05:53:29;;;;;;;27.52;4.88;;;;;;;;;;5067953;28;20270;-75
2022/02/02 05:55:56;;;;;;;32.35;5.05;;;;;;;;;;5052294;28;20394;-75
2022/02/02 05:58:24;;;;;;;;;;;;;;;;;;5062093;28;20066;-75
2022/02/02 06:00:52;;;;;;;31.45;4.70;;;;;;;;;;5044461;28;20389;-74
2022/02/02 06:03:19;;;;;;;37.30;4.80;;;;;;;;;;5037545;28;20044;-74
2022/02/02 06:05:46;;;;;;;34.63;5.40;;;;;;;;;;5044939;28;20057;-74
2022/02/02 06:08:14;;;;;;;33.08;5.10;;;;;;;;;;5051045;28;20052;-74
2022/02/02 06:10:41;;;;;;;40.92;5.95;;;;;;;;;;5035702;28;20079;-74
2022/02/02 06:13:08;;;;;;;36.90;5.47;;;;;;;;;;5039338;28;20497;-74
2022/02/02 06:15:35;;;;;;;27.80;4.80;;;;;;;;;;5042732;28;20530;-74
2022/02/02 06:18:02;;;;;;;26.98;5.35;;;;;;;;;;5044144;28;20048;-75
2022/02/02 06:20:29;;;;;;;36.80;4.45;;;;;;;;;;5036899;28;20045;-75
2022/02/02 06:23:01;;;;;;;37.28;6.13;;;;;;;;;;5047717;28;20505;-74
2022/02/02 06:25:32;;;;;;;42.22;6.13;;;;;;;;;;5053129;28;20071;-74
2022/02/02 06:28:00;;;;;;;34.63;5.15;;;;;;;;;;5061858;28;20129;-75
2022/02/02 06:30:27;;;;;;;39.13;5.15;;;;;;;;;;5051951;28;20044;-74
2022/02/02 06:32:57;;;;;;;36.42;5.13;;;;;;;;;;5042498;28;20075;-75
2022/02/02 06:35:23;;;;;;;38.28;5.82;;;;;;;;;;5039087;28;20060;-75
2022/02/02 06:37:49;;;;;;;43.67;7.03;;;;;;;;;;5032222;28;20079;-74
2022/02/02 06:40:18;;;;;;;39.90;5.05;;;;;;;;;;5041251;28;20060;-74
2022/02/02 06:42:44;;;;;;;46.28;5.90;;;;;;;;;;5034333;28;20044;-74
2022/02/02 06:45:11;;;;;;;36.58;5.55;;;;;;;;;;5062821;28;20499;-74
2022/02/02 06:47:39;;;;;;;33.25;5.93;;;;;;;;;;5053666;28;20669;-74
2022/02/02 06:50:12;;;;;;;26.85;4.22;;;;;;;;;;5055689;28;20080;-75
2022/02/02 06:52:56;;;;;;;34.67;5.13;;;;;;;;;;5054424;28;20048;-74
2022/02/02 06:55:46;;;;;;;34.75;4.35;;;;;;;;;;5052016;28;20048;-74
2022/02/02 07:04:41;;;;;;;35.53;4.30;;;;;;;;;;4994073;28;20519;-74
2022/02/02 07:07:22;;;;;;;27.40;4.28;;;;;;;;;;5015228;28;20147;-74
2022/02/02 07:10:08;;;;;;;30.38;4.35;;;;;;;;;;5011179;28;20251;-75
2022/02/02 07:15:22;;;;;;;31.52;4.47;;;;;;;;;;5000644;28;20563;-74
2022/02/02 07:18:08;;;;;;;28.45;4.10;;;;;;;;;;4987323;28;20053;-74
2022/02/02 07:20:58;;;;;;;26.58;4.82;;;;;;;;;;5002857;28;20053;-75
2022/02/02 07:26:21;;;;;;;30.30;4.75;;;;;;;;;;5016083;28;20447;-74
2022/02/02 07:33:48;;;;;;;36.13;4.83;;;;;;;;;;4996638;28;20052;-74
2022/02/02 07:36:25;;;;;;;29.92;6.20;;;;;;;;;;5032001;28;20044;-75
2022/02/02 07:38:57;;;;;;;33.38;4.13;;;;;;;;;;5043302;28;20067;-74
2022/02/02 07:41:26;;;;;;;21.52;4.38;;;;;;;;;;5042804;28;20052;-75
2022/02/02 07:43:53;;;;;;;36.80;4.60;;;;;;;;;;5037522;28;20199;-75
2022/02/02 07:46:26;;;;;;;31.10;3.97;;;;;;;;;;5044215;28;20052;-75
2022/02/02 07:48:52;;;;;;;24.50;3.90;;;;;;;;;;5035339;28;20056;-75
2022/02/02 07:51:19;;;;;;;24.67;4.43;;;;;;;;;;5048835;28;20060;-74
2022/02/02 07:53:50;;;;;;;28.48;4.65;;;;;;;;;;5053747;28;20048;-75
2022/02/02 07:56:29;;;;;;;36.10;4.60;;;;;;;;;;5049673;28;20106;-74
2022/02/02 07:59:41;;;;;;;33.15;4.60;;;;;;;;;;5049388;28;20059;-74
2022/02/02 08:01:50;;;;;;;29.65;3.90;;;;;;;;;;5035412;28;20049;-74
2022/02/02 08:04:21;;;;;;;29.75;4.72;;;;;;;;;;5054976;28;20707;-74
2022/02/02 08:06:52;;;;;;;35.20;4.85;;;;;;;;;;5059772;28;20682;-74
2022/02/02 08:09:24;;;;;;;24.58;4.30;;;;;;;;;;5034565;28;20131;-74
2022/02/02 08:11:52;;;;;;;33.45;4.57;;;;;;;;;;5056962;28;20052;-75
2022/02/02 08:14:29;;;;;;;23.23;4.18;;;;;;;;;;5041195;28;20754;-75
2022/02/02 08:16:56;;;;;;;38.35;4.68;;;;;;;;;;5055562;28;20446;-74
2022/02/02 08:19:22;;;;;;;26.80;4.15;;;;;;;;;;5046939;28;20151;-74
2022/02/02 08:21:49;;;;;;;29.58;3.83;;;;;;;;;;5059791;28;20060;-74
2022/02/02 08:24:15;;;;;;;35.22;5.63;;;;;;;;;;5060744;28;20053;-74
2022/02/02 08:26:42;;;;;;;36.78;5.13;;;;;;;;;;5046454;28;20058;-75
2022/02/02 08:29:08;;;;;;;32.40;4.38;;;;;;;;;;5058180;28;20489;-75
2022/02/02 08:31:39;;;;;;;29.88;4.57;;;;;;;;;;5035549;28;20296;-74
2022/02/02 08:34:10;;;;;;;32.83;4.60;;;;;;;;;;5041893;28;20080;-75
2022/02/02 08:36:45;;;;;;;36.28;5.00;;;;;;;;;;5052184;28;20040;-75
2022/02/02 08:39:22;;;;;;;34.97;4.70;;;;;;;;;;5039258;28;20060;-74
2022/02/02 08:41:52;;;;;;;30.17;4.93;;;;;;;;;;5030402;28;20056;-74
2022/02/02 08:44:29;;;;;;;30.13;5.43;;;;;;;;;;5040174;28;20052;-74
2022/02/02 08:47:03;;;;;;;40.83;5.63;;;;;;;;;;5038807;28;20059;-75
2022/02/02 08:49:34;;;;;;;36.28;5.03;;;;;;;;;;5041702;28;20557;-74
2022/02/02 08:52:01;;;;;;;38.65;5.00;;;;;;;;;;5046100;28;20313;-74
2022/02/02 08:54:45;;;;;;;32.45;4.65;;;;;;;;;;5028667;28;20045;-74
2022/02/02 08:57:29;;;;;;;35.22;5.60;;;;;;;;;;5045213;28;20136;-74
2022/02/02 09:00:07;;;;;;;34.83;5.00;;;;;;;;;;5037950;28;20049;-74
2022/02/02 09:02:35;;;;;;;32.10;5.15;;;;;;;;;;5063535;28;20075;-74
2022/02/02 09:05:23;;;;;;;28.48;4.88;;;;;;;;;;5037068;28;20049;-75
2022/02/02 09:08:08;;;;;;;30.38;4.45;;;;;;;;;;5074520;28;20163;-75
2022/02/02 09:24:29;;;;;;;39.83;6.30;;;;;;;;;;5047030;28;20509;-74
2022/02/02 09:34:58;;;;;;;42.10;5.85;;;;;;;;;;5037762;28;20347;-74
2022/02/02 09:37:26;;;;;;;46.65;6.38;;;;;;;;;;5060249;28;20075;-74
2022/02/02 09:40:05;;;;;;;39.60;6.15;;;;;;;;;;5054665;28;20055;-74
2022/02/02 09:42:34;;;;;;;38.80;6.20;;;;;;;;;;5059752;28;20092;-74
2022/02/02 09:45:07;;;;;;;34.85;5.30;;;;;;;;;;5046069;28;20053;-74
2022/02/02 09:47:41;;;;;;;40.33;6.07;;;;;;;;;;5052074;28;20474;-74
2022/02/02 09:50:21;;;;;;;45.13;6.90;;;;;;;;;;5069927;28;20054;-74
2022/02/02 09:52:55;;;;;;;43.78;6.45;;;;;;;;;;5032937;28;20049;-74
2022/02/02 09:55:48;;;;;;;46.88;5.47;;;;;;;;;;5060058;28;20053;-74
2022/02/02 10:00:49;;;;;;;34.58;5.50;;;;;;;;;;5062179;28;20447;-74
2022/02/02 10:05:59;;;;;;;41.45;6.53;;;;;;;;;;5060692;28;20509;-74
2022/02/02 10:12:31;;;;;;;38.38;6.18;;;;;;;;;;5045775;28;20430;-74
2022/02/02 10:14:26;;;;;;;37.75;6.15;;;;;;;;;;5036185;28;20048;-74
2022/02/02 10:16:54;;;;;;;47.28;6.50;;;;;;;;;;5037445;28;20159;-74
2022/02/02 10:19:22;;;;;;;44.58;6.65;;;;;;;;;;5036834;28;20402;-74
2022/02/02 10:21:50;;;;;;;40.35;5.55;;;;;;;;;;5061155;28;20131;-74
2022/02/02 10:24:17;;;;;;;39.17;6.55;;;;;;;;;;5062418;28;20052;-74
2022/02/02 10:26:44;;;;;;;39.00;6.55;;;;;;;;;;5029671;28;20052;-74
2022/02/02 10:29:11;;;;;;;38.25;6.13;;;;;;;;;;5053351;28;20075;-74
2022/02/02 10:31:39;;;;;;;35.70;5.25;;;;;;;;;;5030864;28;20052;-74
2022/02/02 10:34:10;;;;;;;49.70;5.60;;;;;;;;;;5044007;28;20054;-74
2022/02/02 10:36:37;;;;;;;36.30;5.47;;;;;;;;;;5054441;28;20044;-74
2022/02/02 10:39:13;;;;;;;31.45;4.60;;;;;;;;;;5077406;28;20135;-74
2022/02/02 10:41:55;;;;;;;47.45;6.10;;;;;;;;;;5059296;28;20110;-74
2022/02/02 10:44:29;;;;;;;37.75;6.82;;;;;;;;;;5022118;28;20048;-74
2022/02/02 10:47:36;;;;;;;45.55;7.18;;;;;;;;;;5053170;28;20049;-74
2022/02/02 10:55:16;;;;;;;34.10;5.10;;;;;;;;;;5045099;28;20059;-74
2022/02/02 10:58:06;;;;;;;34.05;5.45;;;;;;;;;;5056545;28;20109;-74
2022/02/02 11:00:46;;;;;;;45.33;7.03;;;;;;;;;;5050883;28;20071;-73
2022/02/02 11:08:43;;;;;;;32.92;5.38;;;;;;;;;;5063531;28;20050;-74
2022/02/02 11:11:10;;;;;;;37.60;6.13;;;;;;;;;;5052196;28;20064;-74
2022/02/02 11:13:37;;;;;;;37.38;6.25;;;;;;;;;;5045495;28;20400;-74
2022/02/02 11:16:06;;;;;;;;;;;;;;;;;;5041097;28;20054;-74
2022/02/02 11:18:35;;;;;;;32.72;5.38;;;;;;;;;;5051678;28;19964;-74
2022/02/02 11:21:05;;;;;;;34.40;5.78;;;;;;;;;;5057659;28;20417;-74
2022/02/02 11:23:45;;;;;;;30.27;5.10;;;;;;;;;;5028567;28;20045;-75
2022/02/02 11:26:13;;;;;;;25.88;5.30;;;;;;;;;;5056707;28;20162;-74
2022/02/02 11:28:39;;;;;;;28.88;4.43;;;;;;;;;;5052732;28;20048;-74
2022/02/02 11:31:07;;;;;;;32.83;5.20;;;;;;;;;;5042055;28;20059;-74
2022/02/02 11:33:53;;;;;;;28.73;5.00;;;;;;;;;;5060551;28;20055;-74
2022/02/02 11:36:24;;;;;;;33.38;5.13;;;;;;;;;;5047774;28;20056;-73
2022/02/02 11:38:53;;;;;;;29.75;5.20;;;;;;;;;;5036668;28;20045;-73
2022/02/02 11:49:35;;;;;;;31.52;5.30;;;;;;;;;;5049906;28;20490;-73
2022/02/02 11:52:03;;;;;;;26.88;4.65;;;;;;;;;;5028065;28;20243;-73
2022/02/02 11:54:32;;;;;;;23.75;4.05;;;;;;;;;;5051826;28;20076;-73
2022/02/02 11:57:00;;;;;;;56.35;6.35;;;;;;;;;;5053701;28;20475;-74
2022/02/02 11:59:55;;;;;;;29.75;5.00;;;;;;;;;;5060153;28;20052;-73
2022/02/02 12:05:22;;;;;;;29.45;4.18;;;;;;;;;;5053589;28;20048;-74
2022/02/02 12:08:29;;;;;;;30.98;4.43;;;;;;;;;;5038375;28;20053;-73
2022/02/02 12:49:36;;;;;;;19.60;3.85;;;;;;;;;;5049185;28;20056;-68
2022/02/02 12:57:36;;;;;;;18.27;2.95;;;;;;;;;;5061757;28;20052;-67
2022/02/02 13:00:08;;;;;;;21.55;2.50;;;;;;;;;;5056167;28;20058;-67
2022/02/02 13:02:36;;;;;;;14.48;2.30;;;;;;;;;;5036522;28;20049;-67
2022/02/02 13:05:02;;;;;;;20.03;2.63;;;;;;;;;;5059584;28;20441;-67
2022/02/02 13:07:30;;;;;;;16.73;2.90;;;;;;;;;;5051703;28;20485;-67
2022/02/02 13:09:57;;;;;;;14.25;2.38;;;;;;;;;;5062705;28;20449;-66
2022/02/02 13:12:25;;;;;;;18.70;2.40;;;;;;;;;;5056121;28;20461;-66
2022/02/02 13:17:58;;;;;;;13.45;2.42;;;;;;;;;;5054438;28;20044;-65
2022/02/02 13:20:34;;;;;;;18.42;3.65;;;;;;;;;;5062745;28;20417;-65
2022/02/02 13:23:09;;;;;;;18.77;2.80;;;;;;;;;;5057877;28;20056;-65
2022/02/02 13:25:37;;;;;;;13.50;2.38;;;;;;;;;;5051860;28;20052;-65
2022/02/02 13:28:05;;;;;;;15.40;2.50;;;;;;;;;;5058071;28;20056;-65
2022/02/02 13:30:40;;;;;;;17.83;2.83;;;;;;;;;;5051069;28;20049;-66
2022/02/02 13:33:18;;;;;;;18.52;3.40;;;;;;;;;;5062606;28;20059;-65
2022/02/02 13:35:59;;;;;;;21.33;3.28;;;;;;;;;;5054429;28;20052;-65
2022/02/02 13:47:34;;;;;;;16.58;2.67;;;;;;;;;;4951756;28;20419;-66
2022/02/02 13:54:13;;;;;;;14.13;2.50;;;;;;;;;;4952220;28;20058;-66
2022/02/02 13:56:33;;;;;;;15.75;2.10;;;;;;;;;;4940987;28;20062;-66
2022/02/02 14:04:26;;;;;;;21.10;3.22;;;;;;;;;;4951806;28;20077;-65
2022/02/02 14:31:14;;;;;;;18.85;3.17;;;;;;;;;;5060485;28;20135;-66
2022/02/02 14:33:52;;;;;;;14.43;2.67;;;;;;;;;;5052866;28;20064;-66
2022/02/02 14:36:22;;;;;;;20.40;2.90;;;;;;;;;;5057163;28;20412;-66
2022/02/02 14:39:06;;;;;;;16.88;2.58;;;;;;;;;;5036417;28;20080;-66
2022/02/02 14:41:51;;;;;;;15.98;2.22;;;;;;;;;;5057210;28;20795;-66
2022/02/02 14:44:24;;;;;;;11.63;2.28;;;;;;;;;;5049009;28;20048;-65
2022/02/02 14:47:15;;;;;;;13.82;2.25;;;;;;;;;;5045448;28;20048;-66
2022/02/02 14:52:33;;;;;;;18.25;3.00;;;;;;;;;;5057062;28;20469;-65
2022/02/02 15:07:13;;;;;;;18.80;2.75;;;;;;;;;;5047450;28;20048;-65
2022/02/02 15:09:36;;;;;;;17.45;2.83;;;;;;;;;;5041726;28;20516;-66
2022/02/02 15:28:17;;;;;;;20.98;3.78;;;;;;;;;;5042426;28;20140;-66
2022/02/02 15:33:19;;;;;;;19.10;2.88;;;;;;;;;;5036634;28;20402;-65
2022/02/02 15:35:46;;;;;;;25.23;3.38;;;;;;;;;;5049832;28;20061;-65
2022/02/02 15:38:24;;;;;;;20.73;3.83;;;;;;;;;;5061710;28;20550;-65
2022/02/02 15:40:57;;;;;;;24.05;3.33;;;;;;;;;;5053815;28;20083;-66
2022/02/02 15:43:35;;;;;;;17.48;3.15;;;;;;;;;;5059230;28;20052;-66
2022/02/02 16:05:12;;;;;;;22.55;3.47;;;;;;;;;;5051570;28;20048;-66
2022/02/02 16:07:39;;;;;;;19.73;3.72;;;;;;;;;;5059829;28;20057;-66
2022/02/02 16:10:13;;;;;;;23.38;4.30;;;;;;;;;;5053759;28;20051;-66
2022/02/02 16:12:43;;;;;;;26.30;3.85;;;;;;;;;;5060734;28;20060;-66
2022/02/02 16:36:43;;;;;;;18.95;3.63;;;;;;;;;;5016294;28;20049;-66
2022/02/02 16:39:13;;;;;;;21.13;3.67;;;;;;;;;;5007474;28;20868;-66
2022/02/02 16:44:25;;;;;;;25.65;4.10;;;;;;;;;;5012469;28;20049;-66
2022/02/02 16:46:52;;;;;;;21.80;3.75;;;;;;;;;;5015230;28;20049;-66
2022/02/02 16:49:19;;;;;;;20.48;4.40;;;;;;;;;;5021144;28;20517;-66
2022/02/02 16:51:45;;;;;;;23.08;5.95;;;;;;;;;;5013877;28;20055;-66
2022/02/02 16:54:36;;;;;;;27.80;6.30;;;;;;;;;;5020477;28;20060;-66
2022/02/02 17:28:26;;;;;;;28.10;5.72;;;;;;;;;;5023549;28;20096;-66
2022/02/02 17:32:59;;;;;;;22.52;4.30;;;;;;;;;;5018533;28;20057;-66
2022/02/02 17:35:29;;;;;;;30.52;4.45;;;;;;;;;;4999039;28;20400;-66
2022/02/02 17:38:05;;;;;;;24.30;4.25;;;;;;;;;;5022699;28;20045;-66
2022/02/02 17:40:41;;;;;;;25.60;4.50;;;;;;;;;;5023516;28;20049;-66
2022/02/02 17:45:48;;;;;;;23.33;3.63;;;;;;;;;;5017724;28;20392;-66
2022/02/02 17:57:59;;;;;;;25.70;6.10;;;;;;;;;;5017199;28;20128;-66
2022/02/02 18:18:51;;;;;;;21.52;5.45;;;;;;;;;;4981095;28;20064;-66
2022/02/02 18:21:19;;;;;;;20.10;5.68;;;;;;;;;;5013798;28;20486;-66
2022/02/02 18:31:52;;;;;;;30.50;7.15;;;;;;;;;;4967951;28;20047;-66
2022/02/02 18:34:35;;;;;;;21.48;6.88;;;;;;;;;;5013620;28;20065;-66
2022/02/02 18:47:59;;;;;;;22.50;8.98;;;;;;;;;;5010452;28;20498;-67
2022/02/02 18:50:51;;;;;;;20.25;7.97;;;;;;;;;;5013197;28;20056;-67
2022/02/02 18:58:34;;;;;;;24.52;9.90;;;;;;;;;;5021475;28;20061;-67
2022/02/02 19:04:31;;;;;;;25.45;8.93;;;;;;;;;;5011471;28;19924;-67
2022/02/02 19:07:18;;;;;;;;;;;;;;;;;;5011093;28;20053;-66
2022/02/02 19:40:24;;;;;;;22.92;8.40;;;;;;;;;;5019721;28;20060;-67
2022/02/02 19:56:47;;;;;;;21.02;10.30;;;;;;;;;;5020758;28;20045;-66
2022/02/02 20:05:05;;;;;;;19.92;9.73;;;;;;;;;;4995937;28;20054;-67
2022/02/02 20:07:50;;;;;;;22.13;11.20;;;;;;;;;;5020693;28;20082;-67
2022/02/02 20:12:50;;;;;;;19.60;11.35;;;;;;;;;;5018853;28;20128;-67
2022/02/02 20:15:17;;;;;;;21.65;10.32;;;;;;;;;;5015746;28;20059;-66
2022/02/02 20:17:45;;;;;;;19.65;10.27;;;;;;;;;;5011961;28;20083;-65
2022/02/02 20:20:15;;;;;;;17.67;9.98;;;;;;;;;;5020064;28;20049;-67
2022/02/02 20:22:42;;;;;;;25.08;11.85;;;;;;;;;;5011855;28;20058;-65
2022/02/02 20:25:10;;;;;;;23.48;11.77;;;;;;;;;;5019930;28;20060;-65
2022/02/02 20:27:37;;;;;;;19.42;11.48;;;;;;;;;;5006640;28;20049;-65
2022/02/02 20:30:05;;;;;;;19.75;10.80;;;;;;;;;;5015484;28;20053;-65
2022/02/02 20:32:31;;;;;;;22.08;10.93;;;;;;;;;;5019817;28;20092;-68
2022/02/02 20:34:58;;;;;;;20.08;10.55;;;;;;;;;;5011349;28;20054;-67
2022/02/02 20:37:24;;;;;;;22.52;11.48;;;;;;;;;;5021650;28;20454;-67
2022/02/02 20:39:55;;;;;;;21.48;11.57;;;;;;;;;;5013540;28;20448;-68
2022/02/02 20:42:45;;;;;;;20.58;10.75;;;;;;;;;;5012709;28;20308;-67
2022/02/02 21:10:07;;;;;;;;;;;;;;;;;;4994522;28;20060;-65
2022/02/02 21:15:25;;;;;;;28.17;13.82;;;;;;;;;;5013047;28;20607;-66
2022/02/02 21:17:53;;;;;;;27.83;13.50;;;;;;;;;;5021351;28;20541;-67
2022/02/02 21:20:47;;;;;;;27.83;13.18;;;;;;;;;;4996081;28;20160;-67
2022/02/02 21:26:13;;;;;;;31.00;14.82;;;;;;;;;;5014290;28;20585;-66
2022/02/02 21:28:37;;;;;;;32.65;13.40;;;;;;;;;;5023810;28;20079;-66
2022/02/02 21:31:04;;;;;;;24.95;12.27;;;;;;;;;;5015114;28;20057;-67
2022/02/02 21:33:33;;;;;;;33.10;14.63;;;;;;;;;;5023158;28;20393;-67
2022/02/02 21:36:00;;;;;;;31.02;14.52;;;;;;;;;;5018445;28;20049;-67
2022/02/02 21:38:41;;;;;;;30.98;15.85;;;;;;;;;;5010849;28;20123;-67
2022/02/02 21:41:08;;;;;;;35.35;15.80;;;;;;;;;;5022895;28;20541;-66
2022/02/02 21:43:35;;;;;;;37.87;16.97;;;;;;;;;;5013097;28;20527;-67
2022/02/02 21:46:01;;;;;;;34.58;14.98;;;;;;;;;;5022950;28;20050;-67
2022/02/02 21:48:32;;;;;;;33.53;15.25;;;;;;;;;;5021083;28;20045;-66
2022/02/02 21:51:07;;;;;;;33.10;16.13;;;;;;;;;;5038161;28;20049;-67
2022/02/02 21:53:33;;;;;;;33.83;16.05;;;;;;;;;;5017055;28;20057;-66
2022/02/02 21:56:00;;;;;;;33.55;17.42;;;;;;;;;;5019329;28;20053;-67
2022/02/02 21:58:26;;;;;;;35.50;15.57;;;;;;;;;;5022576;28;20050;-67
2022/02/02 22:00:52;;;;;;;36.08;17.27;;;;;;;;;;5014451;28;20779;-67
2022/02/02 22:03:19;;;;;;;32.05;15.70;;;;;;;;;;5016562;28;20052;-67
2022/02/02 22:05:45;;;;;;;35.58;16.13;;;;;;;;;;5008519;28;20513;-67
2022/02/02 22:08:12;;;;;;;33.97;17.02;;;;;;;;;;5022745;28;20053;-67
2022/02/02 22:10:39;;;;;;;33.97;17.05;;;;;;;;;;5019862;28;20073;-67
2022/02/02 22:13:06;;;;;;;33.58;16.17;;;;;;;;;;5022488;28;20052;-67
2022/02/02 22:15:42;;;;;;;37.80;16.88;;;;;;;;;;5022746;28;20371;-67
2022/02/02 22:18:10;;;;;;;32.90;16.63;;;;;;;;;;5015576;28;20049;-68
2022/02/02 22:20:36;;;;;;;34.95;17.33;;;;;;;;;;5023466;28;20454;-67
2022/02/02 22:23:03;;;;;;;34.92;16.65;;;;;;;;;;5012332;28;20057;-67
2022/02/02 22:25:29;;;;;;;36.10;17.38;;;;;;;;;;5015944;28;20046;-67
2022/02/02 22:27:55;;;;;;;35.55;17.45;;;;;;;;;;5010641;28;20419;-67
2022/02/02 22:30:22;;;;;;;36.05;18.05;;;;;;;;;;5013316;28;20049;-67
2022/02/02 22:32:48;;;;;;;38.38;18.48;;;;;;;;;;5018977;28;20049;-66
2022/02/02 22:35:15;;;;;;;38.10;18.30;;;;;;;;;;5014395;28;20403;-67
2022/02/02 22:37:41;;;;;;;37.55;18.27;;;;;;;;;;5022294;28;20049;-67
2022/02/02 22:40:08;;;;;;;39.90;19.00;;;;;;;;;;5011450;28;20058;-66
2022/02/02 22:42:35;;;;;;;47.05;20.42;;;;;;;;;;5014823;28;20083;-66
2022/02/02 22:45:04;;;;;;;38.47;18.88;;;;;;;;;;5022312;28;20052;-68
2022/02/02 22:47:32;;;;;;;41.42;19.75;;;;;;;;;;5017674;28;20473;-68
2022/02/02 22:50:00;;;;;;;43.58;18.88;;;;;;;;;;5022651;28;20490;-69
2022/02/02 22:52:27;;;;;;;;;;;;;;;;;;5014863;28;20265;-68
2022/02/02 22:54:53;;;;;;;39.67;20.25;;;;;;;;;;5017163;28;19937;-68
2022/02/02 22:57:22;;;;;;;44.58;21.25;;;;;;;;;;5009510;28;20050;-68
2022/02/02 22:59:50;;;;;;;38.03;18.92;;;;;;;;;;5005328;28;20058;-68
2022/02/02 23:04:46;;;;;;;38.70;20.13;;;;;;;;;;5019525;28;20104;-68
2022/02/02 23:07:12;;;;;;;42.70;21.02;;;;;;;;;;5021817;28;20470;-67
2022/02/02 23:09:42;;;;;;;39.20;20.75;;;;;;;;;;5007044;28;20307;-68
2022/02/02 23:12:08;;;;;;;39.10;21.67;;;;;;;;;;5024744;28;20075;-67
2022/02/02 23:14:38;;;;;;;42.85;22.67;;;;;;;;;;5012920;28;20057;-67
2022/02/02 23:17:05;;;;;;;40.30;20.63;;;;;;;;;;5021987;28;20057;-67
2022/02/02 23:19:35;;;;;;;41.65;21.52;;;;;;;;;;5021754;28;20498;-67
2022/02/02 23:22:02;;;;;;;46.10;22.48;;;;;;;;;;5012972;28;20059;-68
2022/02/02 23:24:31;;;;;;;40.60;22.75;;;;;;;;;;5015812;28;20497;-66
2022/02/02 23:26:57;;;;;;;38.75;21.02;;;;;;;;;;5008852;28;20053;-68
2022/02/02 23:29:27;;;;;;;38.05;21.20;;;;;;;;;;5018266;28;20506;-66
2022/02/02 23:31:54;;;;;;;40.13;22.38;;;;;;;;;;5013406;28;20041;-66
2022/02/02 23:34:21;;;;;;;34.25;19.88;;;;;;;;;;5021805;28;20486;-66
2022/02/02 23:36:51;;;;;;;36.67;21.15;;;;;;;;;;5016059;28;20049;-66
2022/02/02 23:39:18;;;;;;;35.85;21.02;;;;;;;;;;4997308;28;20582;-66
2022/02/02 23:44:31;;;;;;;34.10;20.92;;;;;;;;;;5012346;28;20805;-66
2022/02/02 23:46:58;;;;;;;33.40;20.83;;;;;;;;;;5021019;28;20056;-65
2022/02/02 23:49:35;;;;;;;37.65;21.50;;;;;;;;;;5008265;28;20041;-65
2022/02/02 23:52:02;;;;;;;39.33;22.65;;;;;;;;;;5016864;28;20056;-68
2022/02/02 23:54:31;;;;;;;38.15;23.02;;;;;;;;;;5016667;28;20635;-66
2022/02/02 23:57:09;;;;;;;34.92;21.42;;;;;;;;;;5024851;28;20054;-68
